Time;durP1;ratioP1;P1;durP2;ratioP2;P2;SDS_P1;SDS_P2;PMS_P1;PMS_P2;Temp;Humidity;BMP_temperature;BMP_pressure;BME280_temperature;BME280_humidity;BME280_pressure;Samples;Min_cycle;Max_cycle;Signal;HPM_P1;HPM_P2
2023/08/30 00:01:41;;;;;;;24.63;16.90;;;;;;;;;;5035353;28;20488;-70
2023/08/30 00:04:07;;;;;;;26.90;17.30;;;;;;;;;;5035782;28;20041;-70
2023/08/30 00:06:32;;;;;;;29.20;16.23;;;;;;;;;;5035633;28;20104;-70
2023/08/30 00:08:58;;;;;;;23.13;17.10;;;;;;;;;;5033932;28;20508;-70
2023/08/30 00:11:23;;;;;;;24.98;16.67;;;;;;;;;;5035568;28;20045;-70
2023/08/30 00:13:48;;;;;;;28.23;17.27;;;;;;;;;;5035602;28;20037;-70
2023/08/30 00:16:16;;;;;;;25.52;16.75;;;;;;;;;;5035461;28;20267;-70
2023/08/30 00:18:41;;;;;;;28.25;17.92;;;;;;;;;;5023433;28;20398;-70
2023/08/30 00:21:07;;;;;;;31.27;18.97;;;;;;;;;;5033053;28;20022;-70
2023/08/30 00:23:32;;;;;;;25.90;16.57;;;;;;;;;;5033941;28;20751;-70
2023/08/30 00:25:57;;;;;;;30.03;17.97;;;;;;;;;;5035300;28;20028;-70
2023/08/30 00:28:22;;;;;;;29.03;19.20;;;;;;;;;;5026540;28;20762;-69
2023/08/30 00:30:52;;;;;;;25.30;17.03;;;;;;;;;;5018123;28;20045;-70
2023/08/30 00:33:17;;;;;;;24.73;17.98;;;;;;;;;;5021314;28;20255;-70
2023/08/30 00:35:42;;;;;;;27.43;17.83;;;;;;;;;;5015774;28;20029;-70
2023/08/30 00:38:07;;;;;;;25.67;17.10;;;;;;;;;;5016026;28;20466;-70
2023/08/30 00:40:39;;;;;;;29.20;17.40;;;;;;;;;;5019947;28;20028;-70
2023/08/30 00:43:05;;;;;;;26.60;16.63;;;;;;;;;;5017836;28;20033;-69
2023/08/30 00:45:30;;;;;;;25.58;16.67;;;;;;;;;;5015571;28;20402;-70
2023/08/30 00:47:55;;;;;;;29.63;17.93;;;;;;;;;;5028209;28;20044;-70
2023/08/30 00:50:20;;;;;;;23.60;15.67;;;;;;;;;;5034846;28;20266;-70
2023/08/30 00:52:46;;;;;;;29.05;17.38;;;;;;;;;;5034461;28;20358;-70
2023/08/30 00:55:11;;;;;;;28.42;16.05;;;;;;;;;;5034763;28;20063;-70
2023/08/30 00:57:36;;;;;;;40.38;16.83;;;;;;;;;;5018701;28;20040;-70
2023/08/30 01:00:04;;;;;;;26.35;16.58;;;;;;;;;;5032808;28;20029;-70
2023/08/30 01:02:30;;;;;;;22.65;15.10;;;;;;;;;;5034661;28;20561;-70
2023/08/30 01:04:55;;;;;;;27.27;15.38;;;;;;;;;;5034566;28;20097;-70
2023/08/30 01:07:20;;;;;;;21.40;14.50;;;;;;;;;;5021974;28;20417;-70
2023/08/30 01:09:46;;;;;;;26.43;16.80;;;;;;;;;;5017387;28;20021;-70
2023/08/30 01:12:20;;;;;;;22.60;15.03;;;;;;;;;;5015167;28;20037;-70
2023/08/30 01:14:51;;;;;;;26.38;15.55;;;;;;;;;;5015067;28;20267;-70
2023/08/30 01:17:16;;;;;;;28.00;15.45;;;;;;;;;;5023951;28;20021;-69
2023/08/30 01:19:56;;;;;;;27.15;14.82;;;;;;;;;;5034267;28;20385;-69
2023/08/30 01:22:24;;;;;;;23.45;15.93;;;;;;;;;;5034198;28;20021;-70
2023/08/30 01:24:49;;;;;;;23.95;16.33;;;;;;;;;;5032460;28;20022;-70
2023/08/30 01:27:16;;;;;;;27.05;16.40;;;;;;;;;;5026140;28;20428;-70
2023/08/30 01:29:42;;;;;;;24.88;14.85;;;;;;;;;;5034104;28;20427;-69
2023/08/30 01:32:08;;;;;;;20.52;14.15;;;;;;;;;;5032015;28;20177;-70
2023/08/30 01:34:34;;;;;;;22.08;15.48;;;;;;;;;;5014745;28;20132;-70
2023/08/30 01:36:59;;;;;;;28.92;16.85;;;;;;;;;;5030849;28;20021;-70
2023/08/30 01:39:25;;;;;;;25.63;16.73;;;;;;;;;;5033873;28;20018;-70
2023/08/30 01:41:55;;;;;;;26.65;15.93;;;;;;;;;;5033847;28;20029;-70
2023/08/30 01:44:21;;;;;;;24.10;15.98;;;;;;;;;;5033146;28;20024;-69
2023/08/30 01:46:47;;;;;;;26.23;16.15;;;;;;;;;;5029947;28;20421;-70
2023/08/30 01:49:12;;;;;;;25.52;15.68;;;;;;;;;;5014446;28;20030;-69
2023/08/30 01:51:38;;;;;;;24.48;14.25;;;;;;;;;;5014453;28;20036;-69
2023/08/30 01:54:04;;;;;;;21.88;14.43;;;;;;;;;;5015481;28;20128;-70
2023/08/30 01:56:29;;;;;;;20.25;15.10;;;;;;;;;;5014453;28;20028;-70
2023/08/30 01:58:54;;;;;;;19.40;13.43;;;;;;;;;;5014277;28;20112;-70
2023/08/30 02:01:19;;;;;;;21.27;15.27;;;;;;;;;;5014274;28;20385;-69
2023/08/30 02:03:45;;;;;;;24.43;14.80;;;;;;;;;;5030691;28;20251;-70
2023/08/30 02:06:17;;;;;;;25.40;14.88;;;;;;;;;;5014492;28;20259;-69
2023/08/30 02:08:42;;;;;;;;;;;;;;;;;;5013831;28;20437;-70
2023/08/30 02:11:11;;;;;;;20.08;13.82;;;;;;;;;;5031359;28;20320;-69
2023/08/30 02:13:37;;;;;;;20.60;14.25;;;;;;;;;;5032945;28;20561;-70
2023/08/30 02:16:03;;;;;;;22.63;13.98;;;;;;;;;;5015142;28;20134;-70
2023/08/30 02:18:28;;;;;;;26.83;14.90;;;;;;;;;;5007361;28;20026;-70
2023/08/30 02:20:55;;;;;;;22.52;13.93;;;;;;;;;;5013996;28;20097;-70
2023/08/30 02:23:22;;;;;;;22.65;13.98;;;;;;;;;;5013941;28;20025;-69
2023/08/30 02:25:47;;;;;;;22.05;14.10;;;;;;;;;;5032890;28;20026;-70
2023/08/30 02:28:13;;;;;;;25.00;14.23;;;;;;;;;;5019500;28;20025;-69
2023/08/30 02:30:38;;;;;;;25.23;16.20;;;;;;;;;;5013853;28;20271;-69
2023/08/30 02:33:03;;;;;;;23.30;14.68;;;;;;;;;;5023126;28;20270;-70
2023/08/30 02:35:29;;;;;;;22.98;15.18;;;;;;;;;;5032547;28;20028;-70
2023/08/30 02:37:54;;;;;;;25.20;14.57;;;;;;;;;;5032750;28;20025;-69
2023/08/30 02:40:19;;;;;;;29.53;15.60;;;;;;;;;;5032846;28;20345;-70
2023/08/30 02:42:44;;;;;;;22.83;13.40;;;;;;;;;;5032918;28;20399;-70
2023/08/30 02:45:09;;;;;;;19.37;12.27;;;;;;;;;;5015112;28;20666;-69
2023/08/30 02:47:35;;;;;;;23.43;13.37;;;;;;;;;;5023381;28;20118;-70
2023/08/30 02:50:00;;;;;;;19.85;13.63;;;;;;;;;;5032723;28;20025;-70
2023/08/30 02:52:25;;;;;;;21.07;14.00;;;;;;;;;;5030827;28;20028;-69
2023/08/30 02:54:50;;;;;;;23.17;13.67;;;;;;;;;;5013512;28;20258;-70
2023/08/30 02:57:16;;;;;;;23.37;14.57;;;;;;;;;;5013605;28;20043;-64
2023/08/30 02:59:41;;;;;;;23.37;14.73;;;;;;;;;;5013547;28;20485;-64
2023/08/30 03:02:06;;;;;;;26.17;15.20;;;;;;;;;;5030702;28;20025;-64
2023/08/30 03:04:31;;;;;;;26.17;15.15;;;;;;;;;;5013379;28;20014;-64
2023/08/30 03:06:57;;;;;;;22.25;14.60;;;;;;;;;;5013381;28;20478;-64
2023/08/30 03:09:22;;;;;;;23.67;14.50;;;;;;;;;;5013303;28;20022;-64
2023/08/30 03:11:47;;;;;;;27.27;14.93;;;;;;;;;;5014431;28;20250;-64
2023/08/30 03:14:13;;;;;;;22.13;13.80;;;;;;;;;;5013304;28;20022;-64
2023/08/30 03:16:38;;;;;;;24.08;14.43;;;;;;;;;;5017487;28;20738;-64
2023/08/30 03:19:04;;;;;;;20.20;12.63;;;;;;;;;;5032423;28;20025;-64
2023/08/30 03:21:29;;;;;;;20.90;12.77;;;;;;;;;;5034767;28;20029;-64
2023/08/30 03:23:54;;;;;;;20.80;13.33;;;;;;;;;;5017289;28;20434;-64
2023/08/30 03:26:19;;;;;;;22.27;14.00;;;;;;;;;;5017234;28;20274;-64
2023/08/30 03:28:44;;;;;;;25.07;13.00;;;;;;;;;;5017138;28;20520;-64
2023/08/30 03:31:16;;;;;;;22.57;12.93;;;;;;;;;;5019647;28;20603;-64
2023/08/30 03:33:42;;;;;;;29.17;16.10;;;;;;;;;;5030009;28;20666;-65
2023/08/30 03:36:09;;;;;;;19.48;12.85;;;;;;;;;;5017031;28;20030;-64
2023/08/30 03:38:34;;;;;;;21.30;12.82;;;;;;;;;;5017967;28;20026;-64
2023/08/30 03:40:59;;;;;;;23.37;13.57;;;;;;;;;;5017578;28;20097;-64
2023/08/30 03:43:24;;;;;;;20.70;13.53;;;;;;;;;;5019191;28;20097;-64
2023/08/30 03:45:49;;;;;;;22.50;12.63;;;;;;;;;;5016713;28;20511;-64
2023/08/30 03:48:15;;;;;;;22.30;13.30;;;;;;;;;;5033279;28;20029;-64
2023/08/30 03:50:40;;;;;;;27.27;13.80;;;;;;;;;;5033017;28;20294;-64
2023/08/30 03:53:05;;;;;;;20.43;13.63;;;;;;;;;;5015488;28;20056;-64
2023/08/30 03:55:30;;;;;;;22.87;15.13;;;;;;;;;;5016662;28;20295;-64
2023/08/30 03:57:55;;;;;;;27.83;16.37;;;;;;;;;;5016524;28;20155;-64
2023/08/30 04:00:21;;;;;;;30.10;16.57;;;;;;;;;;5020430;28;20017;-64
2023/08/30 04:02:47;;;;;;;25.67;16.17;;;;;;;;;;5026266;28;20021;-64
2023/08/30 04:05:12;;;;;;;24.80;15.77;;;;;;;;;;5027994;28;20254;-64
2023/08/30 04:07:37;;;;;;;29.40;15.18;;;;;;;;;;5036342;28;20021;-64
2023/08/30 04:10:06;;;;;;;23.80;12.50;;;;;;;;;;5035523;28;20026;-64
2023/08/30 04:12:31;;;;;;;21.95;14.65;;;;;;;;;;5034780;28;20025;-64
2023/08/30 04:14:56;;;;;;;22.50;14.18;;;;;;;;;;5035703;28;20022;-64
2023/08/30 04:17:21;;;;;;;23.67;13.87;;;;;;;;;;5034033;28;20032;-64
2023/08/30 04:19:47;;;;;;;20.10;13.60;;;;;;;;;;5034541;28;20258;-64
2023/08/30 04:22:12;;;;;;;23.43;15.10;;;;;;;;;;5016195;28;20026;-64
2023/08/30 04:24:37;;;;;;;31.07;15.97;;;;;;;;;;5016069;28;20018;-64
2023/08/30 04:27:02;;;;;;;24.88;14.50;;;;;;;;;;5016253;28;20145;-64
2023/08/30 04:29:28;;;;;;;20.08;12.50;;;;;;;;;;5016102;28;20045;-64
2023/08/30 04:31:54;;;;;;;21.47;13.17;;;;;;;;;;5031883;28;20049;-64
2023/08/30 04:34:19;;;;;;;21.83;13.27;;;;;;;;;;5030966;28;20026;-64
2023/08/30 04:36:44;;;;;;;23.80;13.33;;;;;;;;;;5015983;28;20109;-64
2023/08/30 04:39:09;;;;;;;25.05;14.95;;;;;;;;;;5016637;28;20474;-64
2023/08/30 04:41:35;;;;;;;42.77;15.57;;;;;;;;;;5022555;28;20025;-64
2023/08/30 04:44:00;;;;;;;25.93;15.47;;;;;;;;;;5015748;28;20264;-64
2023/08/30 04:46:25;;;;;;;24.03;14.50;;;;;;;;;;5024022;28;20048;-64
2023/08/30 04:48:50;;;;;;;30.13;13.57;;;;;;;;;;5032600;28;20622;-64
2023/08/30 04:51:15;;;;;;;23.97;15.17;;;;;;;;;;5015578;28;20743;-64
2023/08/30 04:53:42;;;;;;;24.43;13.87;;;;;;;;;;5015626;28;20048;-64
2023/08/30 04:56:14;;;;;;;22.05;13.63;;;;;;;;;;5017172;28;20032;-64
2023/08/30 04:58:39;;;;;;;22.43;13.47;;;;;;;;;;5030947;28;20037;-64
2023/08/30 05:01:04;;;;;;;24.63;13.67;;;;;;;;;;5025146;28;20465;-64
2023/08/30 05:03:30;;;;;;;21.48;13.57;;;;;;;;;;5019203;28;20390;-64
2023/08/30 05:05:55;;;;;;;21.43;14.10;;;;;;;;;;5015309;28;20018;-64
2023/08/30 05:08:20;;;;;;;20.93;13.10;;;;;;;;;;5015272;28;20255;-64
2023/08/30 05:10:46;;;;;;;26.37;11.47;;;;;;;;;;5026339;28;20036;-64
2023/08/30 05:13:11;;;;;;;29.05;11.00;;;;;;;;;;5018935;28;20026;-64
2023/08/30 05:15:36;;;;;;;17.70;11.25;;;;;;;;;;5015641;28;20072;-64
2023/08/30 05:18:02;;;;;;;17.17;11.57;;;;;;;;;;5034293;28;20018;-64
2023/08/30 05:20:27;;;;;;;19.60;11.90;;;;;;;;;;5020764;28;20072;-64
2023/08/30 05:22:52;;;;;;;25.87;12.53;;;;;;;;;;5015031;28;20018;-64
2023/08/30 05:25:17;;;;;;;24.30;13.10;;;;;;;;;;5021646;28;20014;-64
2023/08/30 05:27:43;;;;;;;24.73;13.60;;;;;;;;;;5033882;28;20527;-64
2023/08/30 05:30:08;;;;;;;24.88;12.98;;;;;;;;;;5031321;28;20051;-64
2023/08/30 05:32:34;;;;;;;28.17;14.50;;;;;;;;;;5028254;28;20025;-64
2023/08/30 05:34:59;;;;;;;22.17;13.43;;;;;;;;;;5026053;28;20040;-64
2023/08/30 05:37:24;;;;;;;27.20;14.13;;;;;;;;;;5014710;28;20100;-64
2023/08/30 05:39:49;;;;;;;28.50;13.80;;;;;;;;;;5014717;28;20108;-64
2023/08/30 05:42:15;;;;;;;22.48;12.77;;;;;;;;;;5014675;28;20283;-64
2023/08/30 05:44:40;;;;;;;23.03;13.27;;;;;;;;;;5020471;28;20381;-64
2023/08/30 05:47:05;;;;;;;24.80;13.17;;;;;;;;;;5010282;28;20279;-64
2023/08/30 05:49:30;;;;;;;21.75;13.35;;;;;;;;;;4994918;28;20462;-64
2023/08/30 05:51:56;;;;;;;20.33;12.95;;;;;;;;;;5008680;28;20061;-64
2023/08/30 05:54:21;;;;;;;17.87;11.33;;;;;;;;;;5020856;28;20029;-64
2023/08/30 05:56:46;;;;;;;20.02;11.40;;;;;;;;;;5033345;28;20017;-64
2023/08/30 05:59:11;;;;;;;23.13;12.97;;;;;;;;;;5033445;28;20072;-64
2023/08/30 06:01:37;;;;;;;23.58;12.88;;;;;;;;;;5033532;28;20025;-64
2023/08/30 06:04:04;;;;;;;23.90;12.80;;;;;;;;;;5031795;28;20512;-64
2023/08/30 06:06:29;;;;;;;18.85;11.50;;;;;;;;;;5033417;28;20730;-64
2023/08/30 06:08:54;;;;;;;16.93;10.77;;;;;;;;;;5033383;28;20155;-64
2023/08/30 06:11:19;;;;;;;23.07;13.27;;;;;;;;;;5033071;28;20361;-64
2023/08/30 06:13:45;;;;;;;20.10;12.17;;;;;;;;;;5028313;28;20075;-64
2023/08/30 06:16:10;;;;;;;23.93;10.77;;;;;;;;;;5014095;28;20071;-64
2023/08/30 06:18:37;;;;;;;17.77;10.77;;;;;;;;;;5013874;28;20385;-64
2023/08/30 06:21:03;;;;;;;20.30;11.50;;;;;;;;;;5019086;28;20021;-64
2023/08/30 06:23:29;;;;;;;15.20;10.43;;;;;;;;;;5031481;28;20087;-64
2023/08/30 06:25:55;;;;;;;21.13;11.73;;;;;;;;;;5033171;28;20041;-64
2023/08/30 06:28:20;;;;;;;15.68;10.85;;;;;;;;;;5033360;28;20055;-64
2023/08/30 06:30:45;;;;;;;18.27;11.50;;;;;;;;;;5032713;28;20021;-64
2023/08/30 06:33:11;;;;;;;19.63;10.00;;;;;;;;;;5029069;28;20053;-64
2023/08/30 06:35:38;;;;;;;18.10;10.50;;;;;;;;;;5015105;28;20286;-64
2023/08/30 06:38:04;;;;;;;20.38;9.93;;;;;;;;;;5013652;28;20021;-64
2023/08/30 06:40:29;;;;;;;14.40;10.13;;;;;;;;;;5013691;28;20026;-64
2023/08/30 06:42:54;;;;;;;16.47;10.00;;;;;;;;;;5014701;28;20287;-64
2023/08/30 06:45:20;;;;;;;13.57;8.57;;;;;;;;;;5013594;28;20101;-65
2023/08/30 06:47:45;;;;;;;14.68;8.90;;;;;;;;;;5014436;28;20076;-64
2023/08/30 06:50:10;;;;;;;13.20;8.70;;;;;;;;;;5020802;28;20017;-64
2023/08/30 06:52:36;;;;;;;18.00;9.75;;;;;;;;;;5030700;28;20040;-64
2023/08/30 06:55:02;;;;;;;13.40;8.80;;;;;;;;;;5021625;28;20022;-71
2023/08/30 06:57:27;;;;;;;13.43;8.30;;;;;;;;;;5012177;28;20124;-72
2023/08/30 06:59:52;;;;;;;13.53;8.50;;;;;;;;;;5019231;28;20467;-72
2023/08/30 07:02:17;;;;;;;15.60;8.73;;;;;;;;;;5030678;28;20258;-70
2023/08/30 07:04:43;;;;;;;13.57;8.73;;;;;;;;;;5031337;28;20033;-65
2023/08/30 07:07:08;;;;;;;12.38;8.65;;;;;;;;;;5032710;28;20017;-64
2023/08/30 07:09:33;;;;;;;15.45;8.85;;;;;;;;;;5007528;28;20022;-64
2023/08/30 07:11:58;;;;;;;16.70;9.10;;;;;;;;;;5007475;28;20342;-64
2023/08/30 07:14:24;;;;;;;17.97;9.90;;;;;;;;;;5011890;28;20291;-64
2023/08/30 07:16:50;;;;;;;16.23;10.43;;;;;;;;;;5004909;28;20117;-64
2023/08/30 07:19:15;;;;;;;14.90;10.15;;;;;;;;;;5012993;28;20029;-64
2023/08/30 07:21:41;;;;;;;16.20;10.55;;;;;;;;;;5003583;28;20021;-65
2023/08/30 07:24:07;;;;;;;12.80;9.30;;;;;;;;;;5003961;28;20026;-64
2023/08/30 07:26:32;;;;;;;14.07;9.63;;;;;;;;;;5013160;28;20022;-64
2023/08/30 07:28:57;;;;;;;15.73;10.20;;;;;;;;;;5012434;28;20032;-64
2023/08/30 07:31:22;;;;;;;17.03;10.93;;;;;;;;;;5008571;28;20076;-64
2023/08/30 07:33:48;;;;;;;20.90;10.57;;;;;;;;;;5004988;28;20252;-64
2023/08/30 07:36:13;;;;;;;15.05;9.02;;;;;;;;;;5013209;28;20018;-67
2023/08/30 07:38:38;;;;;;;17.53;10.30;;;;;;;;;;5012318;28;20024;-66
2023/08/30 07:41:03;;;;;;;14.23;10.03;;;;;;;;;;5011468;28;20033;-66
2023/08/30 07:43:29;;;;;;;14.70;9.75;;;;;;;;;;4993523;28;20021;-66
2023/08/30 07:45:54;;;;;;;15.38;9.40;;;;;;;;;;4993147;28;20035;-67
2023/08/30 07:48:19;;;;;;;16.17;10.40;;;;;;;;;;5011274;28;20030;-67
2023/08/30 07:50:44;;;;;;;13.27;9.37;;;;;;;;;;5009255;28;20287;-67
2023/08/30 07:53:10;;;;;;;17.90;11.07;;;;;;;;;;5008246;28;20105;-67
2023/08/30 07:55:35;;;;;;;17.13;10.95;;;;;;;;;;5012626;28;20343;-67
2023/08/30 07:58:00;;;;;;;14.35;8.73;;;;;;;;;;5012735;28;20034;-67
2023/08/30 08:00:26;;;;;;;17.93;12.03;;;;;;;;;;4995682;28;20021;-67
2023/08/30 08:02:51;;;;;;;16.23;10.68;;;;;;;;;;5004813;28;20302;-67
2023/08/30 08:05:16;;;;;;;14.07;10.48;;;;;;;;;;5012735;28;20021;-67
2023/08/30 08:07:42;;;;;;;21.83;11.23;;;;;;;;;;5014209;28;20033;-67
2023/08/30 08:10:07;;;;;;;23.52;11.32;;;;;;;;;;5013979;28;20502;-67
2023/08/30 08:12:33;;;;;;;16.45;12.20;;;;;;;;;;5010844;28;20030;-67
2023/08/30 08:14:58;;;;;;;20.02;11.80;;;;;;;;;;5016051;28;20026;-67
2023/08/30 08:17:23;;;;;;;16.83;12.37;;;;;;;;;;5008288;28;20037;-67
2023/08/30 08:19:48;;;;;;;14.83;10.83;;;;;;;;;;5007799;28;20025;-67
2023/08/30 08:22:14;;;;;;;16.00;11.37;;;;;;;;;;5007486;28;20046;-67
2023/08/30 08:24:39;;;;;;;18.73;11.87;;;;;;;;;;5015502;28;20313;-67
2023/08/30 08:27:05;;;;;;;14.63;10.15;;;;;;;;;;5015957;28;20046;-67
2023/08/30 08:29:31;;;;;;;12.30;9.68;;;;;;;;;;5015654;28;20609;-67
2023/08/30 08:31:56;;;;;;;15.18;11.80;;;;;;;;;;5008289;28;20109;-68
2023/08/30 08:34:21;;;;;;;17.30;11.20;;;;;;;;;;5015905;28;20393;-67
2023/08/30 08:36:46;;;;;;;14.63;8.90;;;;;;;;;;5007772;28;20065;-67
2023/08/30 08:39:14;;;;;;;16.77;12.00;;;;;;;;;;5006772;28;20048;-67
2023/08/30 08:41:43;;;;;;;16.48;10.25;;;;;;;;;;4999136;28;20023;-67
2023/08/30 08:44:08;;;;;;;8.77;7.03;;;;;;;;;;4996651;28;20446;-67
2023/08/30 08:46:34;;;;;;;15.32;9.57;;;;;;;;;;5012817;28;20073;-65
2023/08/30 08:49:01;;;;;;;12.25;9.60;;;;;;;;;;5014740;28;20052;-65
2023/08/30 08:51:27;;;;;;;14.75;7.68;;;;;;;;;;5008417;28;20026;-66
2023/08/30 08:53:54;;;;;;;13.88;8.88;;;;;;;;;;5014768;28;20030;-66
2023/08/30 08:56:19;;;;;;;11.23;8.15;;;;;;;;;;5015379;28;20026;-66
2023/08/30 08:58:45;;;;;;;13.23;7.82;;;;;;;;;;5005372;28;20037;-65
2023/08/30 09:01:11;;;;;;;12.82;8.23;;;;;;;;;;5015647;28;20076;-66
2023/08/30 09:03:36;;;;;;;10.73;7.77;;;;;;;;;;5015364;28;20026;-66
2023/08/30 09:06:02;;;;;;;10.60;8.00;;;;;;;;;;5015330;28;20097;-66
2023/08/30 09:08:28;;;;;;;9.48;6.95;;;;;;;;;;5014657;28;20263;-66
2023/08/30 09:10:53;;;;;;;10.63;6.50;;;;;;;;;;5007169;28;20032;-66
2023/08/30 09:13:20;;;;;;;9.68;7.13;;;;;;;;;;5015153;28;20025;-66
2023/08/30 09:15:46;;;;;;;8.20;6.38;;;;;;;;;;5013793;28;20068;-66
2023/08/30 09:18:14;;;;;;;13.55;6.47;;;;;;;;;;5005050;28;20378;-66
2023/08/30 09:20:40;;;;;;;8.55;6.32;;;;;;;;;;5008931;28;20097;-66
2023/08/30 09:23:15;;;;;;;11.70;5.60;;;;;;;;;;5014217;28;20026;-66
2023/08/30 09:25:40;;;;;;;8.45;5.68;;;;;;;;;;5007627;28;20018;-66
2023/08/30 09:28:06;;;;;;;8.30;4.95;;;;;;;;;;5014879;28;20028;-66
2023/08/30 09:30:32;;;;;;;6.83;5.10;;;;;;;;;;5006917;28;20028;-66
2023/08/30 09:33:00;;;;;;;6.00;4.80;;;;;;;;;;5010320;28;20486;-66
2023/08/30 09:35:26;;;;;;;7.75;4.85;;;;;;;;;;5005926;28;20535;-66
2023/08/30 09:37:51;;;;;;;7.53;5.32;;;;;;;;;;5005430;28;20105;-66
2023/08/30 09:40:20;;;;;;;8.18;4.43;;;;;;;;;;5014583;28;20473;-65
2023/08/30 09:42:45;;;;;;;5.90;3.72;;;;;;;;;;5014586;28;20033;-66
2023/08/30 09:45:21;;;;;;;11.17;4.57;;;;;;;;;;5013259;28;20026;-66
2023/08/30 09:47:49;;;;;;;7.32;3.90;;;;;;;;;;5006700;28;20284;-66
2023/08/30 09:50:18;;;;;;;7.82;3.60;;;;;;;;;;5018718;28;20037;-65
2023/08/30 09:52:44;;;;;;;7.10;4.28;;;;;;;;;;5009288;28;20101;-66
2023/08/30 09:55:10;;;;;;;9.18;3.45;;;;;;;;;;5004963;28;20026;-66
2023/08/30 09:57:35;;;;;;;7.13;3.88;;;;;;;;;;5011738;28;20022;-66
2023/08/30 10:00:03;;;;;;;8.50;3.40;;;;;;;;;;5003026;28;20057;-66
2023/08/30 10:02:29;;;;;;;4.88;3.67;;;;;;;;;;5012393;28;20493;-65
2023/08/30 10:04:55;;;;;;;5.68;3.40;;;;;;;;;;5014212;28;20022;-66
2023/08/30 10:07:21;;;;;;;3.80;2.70;;;;;;;;;;5003881;28;20033;-66
2023/08/30 10:09:46;;;;;;;5.45;3.25;;;;;;;;;;5008061;28;20394;-66
2023/08/30 10:12:11;;;;;;;6.82;3.38;;;;;;;;;;5014102;28;20026;-66
2023/08/30 10:14:37;;;;;;;5.68;3.53;;;;;;;;;;5013338;28;20572;-66
2023/08/30 10:17:03;;;;;;;7.07;3.20;;;;;;;;;;5012609;28;20033;-65
2023/08/30 10:19:28;;;;;;;5.47;2.85;;;;;;;;;;5013960;28;20285;-66
2023/08/30 10:21:59;;;;;;;6.55;3.30;;;;;;;;;;5013213;28;20069;-66
2023/08/30 10:24:24;;;;;;;7.28;2.83;;;;;;;;;;5013644;28;20561;-66
2023/08/30 10:26:50;;;;;;;6.45;2.83;;;;;;;;;;5012574;28;20133;-66
2023/08/30 10:29:16;;;;;;;4.13;2.92;;;;;;;;;;5013120;28;20036;-66
2023/08/30 10:31:41;;;;;;;5.00;3.03;;;;;;;;;;5013845;28;20026;-66
2023/08/30 10:34:16;;;;;;;8.57;3.03;;;;;;;;;;4996224;28;20141;-66
2023/08/30 10:36:42;;;;;;;13.93;3.20;;;;;;;;;;5003044;28;20021;-66
2023/08/30 10:39:14;;;;;;;5.13;2.50;;;;;;;;;;5013655;28;20359;-66
2023/08/30 10:41:56;;;;;;;7.20;2.88;;;;;;;;;;4994854;28;20022;-66
2023/08/30 10:44:22;;;;;;;10.07;3.05;;;;;;;;;;5007119;28;20161;-66
2023/08/30 10:46:51;;;;;;;7.53;3.15;;;;;;;;;;5003990;28;20105;-66
2023/08/30 10:49:18;;;;;;;7.40;3.33;;;;;;;;;;5013705;28;20092;-66
2023/08/30 10:51:44;;;;;;;6.63;2.80;;;;;;;;;;5012990;28;20489;-66
2023/08/30 10:54:16;;;;;;;7.22;3.05;;;;;;;;;;5013327;28;20474;-66
2023/08/30 10:56:41;;;;;;;;;;;;;;;;;;5006066;28;20023;-66
2023/08/30 10:59:15;;;;;;;6.90;3.67;;;;;;;;;;5008643;28;19920;-66
2023/08/30 11:01:40;;;;;;;8.27;3.25;;;;;;;;;;5010906;28;20477;-66
2023/08/30 11:04:06;;;;;;;4.97;3.15;;;;;;;;;;5013381;28;20060;-66
2023/08/30 11:06:31;;;;;;;5.85;2.90;;;;;;;;;;5011512;28;20017;-68
2023/08/30 11:08:56;;;;;;;6.93;2.90;;;;;;;;;;5013347;28;20034;-68
2023/08/30 11:11:22;;;;;;;5.97;2.60;;;;;;;;;;5013300;28;20045;-68
2023/08/30 11:13:47;;;;;;;7.47;2.88;;;;;;;;;;5006624;28;20268;-69
2023/08/30 11:16:12;;;;;;;5.35;2.72;;;;;;;;;;5002549;28;20113;-68
2023/08/30 11:18:42;;;;;;;4.47;2.30;;;;;;;;;;5009562;28;20033;-68
2023/08/30 11:21:08;;;;;;;5.88;2.65;;;;;;;;;;5008538;28;20470;-69
2023/08/30 11:23:34;;;;;;;6.90;2.53;;;;;;;;;;5012927;28;20018;-69
2023/08/30 11:26:00;;;;;;;7.25;2.80;;;;;;;;;;5003755;28;20033;-68
2023/08/30 11:28:25;;;;;;;9.15;2.70;;;;;;;;;;4998696;28;20022;-69
2023/08/30 11:30:56;;;;;;;6.37;2.57;;;;;;;;;;4993477;28;20462;-69
2023/08/30 11:33:22;;;;;;;6.55;2.75;;;;;;;;;;4997933;28;20259;-69
2023/08/30 11:35:51;;;;;;;7.77;3.10;;;;;;;;;;5011160;28;20034;-68
2023/08/30 11:38:17;;;;;;;7.20;2.70;;;;;;;;;;5004560;28;20275;-68
2023/08/30 11:40:42;;;;;;;7.07;2.38;;;;;;;;;;5013733;28;20033;-69
2023/08/30 11:43:08;;;;;;;6.67;3.23;;;;;;;;;;5001096;28;20018;-69
2023/08/30 11:45:34;;;;;;;7.00;2.65;;;;;;;;;;5000546;28;20382;-69
2023/08/30 11:48:00;;;;;;;4.00;2.17;;;;;;;;;;5016565;28;20069;-69
2023/08/30 11:50:25;;;;;;;5.30;2.50;;;;;;;;;;5016108;28;20038;-69
2023/08/30 11:52:51;;;;;;;14.85;3.85;;;;;;;;;;5016459;28;20493;-69
2023/08/30 11:55:17;;;;;;;9.00;3.80;;;;;;;;;;5015225;28;20018;-68
2023/08/30 11:57:48;;;;;;;7.85;3.45;;;;;;;;;;5016450;28;20034;-68
2023/08/30 12:00:13;;;;;;;10.85;4.18;;;;;;;;;;5016559;28;20033;-69
2023/08/30 12:02:41;;;;;;;8.55;3.47;;;;;;;;;;5008413;28;20022;-69
2023/08/30 12:05:10;;;;;;;9.60;3.30;;;;;;;;;;5008164;28;20025;-68
2023/08/30 12:07:36;;;;;;;11.45;4.07;;;;;;;;;;5016338;28;20030;-69
2023/08/30 12:10:05;;;;;;;11.05;4.28;;;;;;;;;;5016327;28;20030;-69
2023/08/30 12:12:30;;;;;;;6.10;3.40;;;;;;;;;;5006524;28;20026;-68
2023/08/30 12:14:56;;;;;;;8.30;3.33;;;;;;;;;;5008097;28;20489;-69
2023/08/30 12:17:21;;;;;;;10.27;3.63;;;;;;;;;;5016264;28;20619;-68
2023/08/30 12:19:54;;;;;;;8.40;3.47;;;;;;;;;;5015671;28;20050;-68
2023/08/30 12:22:19;;;;;;;6.60;3.60;;;;;;;;;;5006612;28;20030;-69
2023/08/30 12:24:45;;;;;;;12.40;3.60;;;;;;;;;;5006508;28;20018;-69
2023/08/30 12:27:10;;;;;;;9.95;3.42;;;;;;;;;;5003788;28;20467;-69
2023/08/30 12:29:36;;;;;;;11.68;3.90;;;;;;;;;;4996509;28;20033;-69
2023/08/30 12:32:01;;;;;;;7.30;3.90;;;;;;;;;;5005082;28;20094;-68
2023/08/30 12:34:26;;;;;;;11.03;4.10;;;;;;;;;;5011229;28;20026;-68
2023/08/30 12:36:51;;;;;;;8.13;4.37;;;;;;;;;;5007661;28;20021;-68
2023/08/30 12:39:16;;;;;;;8.90;3.90;;;;;;;;;;5015771;28;20022;-68
2023/08/30 12:41:42;;;;;;;13.60;3.83;;;;;;;;;;5015802;28;20295;-68
2023/08/30 12:44:08;;;;;;;8.40;3.70;;;;;;;;;;5005831;28;20093;-69
2023/08/30 12:46:33;;;;;;;8.80;4.20;;;;;;;;;;5004798;28;20047;-69
2023/08/30 12:48:58;;;;;;;8.38;4.57;;;;;;;;;;5012113;28;20267;-69
2023/08/30 12:51:23;;;;;;;11.03;5.10;;;;;;;;;;5015007;28;20026;-69
2023/08/30 12:53:49;;;;;;;11.20;4.57;;;;;;;;;;5014774;28;20022;-68
2023/08/30 12:56:14;;;;;;;9.60;4.27;;;;;;;;;;5014143;28;20018;-68
2023/08/30 12:58:39;;;;;;;7.70;3.70;;;;;;;;;;5015363;28;20021;-68
2023/08/30 13:01:04;;;;;;;12.33;4.80;;;;;;;;;;5015415;28;20028;-68
2023/08/30 13:03:29;;;;;;;8.40;3.70;;;;;;;;;;5007435;28;20014;-68
2023/08/30 13:05:55;;;;;;;12.67;4.07;;;;;;;;;;5004632;28;20386;-68
2023/08/30 13:08:20;;;;;;;9.10;3.93;;;;;;;;;;5012973;28;20616;-68
2023/08/30 13:10:45;;;;;;;8.87;4.00;;;;;;;;;;5015293;28;20262;-68
2023/08/30 13:13:10;;;;;;;9.98;3.72;;;;;;;;;;5015308;28;20413;-68
2023/08/30 13:15:36;;;;;;;8.50;3.43;;;;;;;;;;5007875;28;20022;-69
2023/08/30 13:18:01;;;;;;;8.17;3.30;;;;;;;;;;4998440;28;20675;-68
2023/08/30 13:20:26;;;;;;;9.17;3.83;;;;;;;;;;5014440;28;20255;-68
2023/08/30 13:22:51;;;;;;;9.73;3.80;;;;;;;;;;5009338;28;20323;-68
2023/08/30 13:25:16;;;;;;;13.10;4.00;;;;;;;;;;5013491;28;20025;-68
2023/08/30 13:27:42;;;;;;;6.67;3.50;;;;;;;;;;5015062;28;20363;-66
2023/08/30 13:30:07;;;;;;;9.13;3.65;;;;;;;;;;5014910;28;20259;-66
2023/08/30 13:32:33;;;;;;;15.60;3.67;;;;;;;;;;5014842;28;20033;-65
2023/08/30 13:34:59;;;;;;;10.90;3.75;;;;;;;;;;5016343;28;20320;-65
2023/08/30 13:37:24;;;;;;;11.15;3.78;;;;;;;;;;5003552;28;20029;-65
2023/08/30 13:39:50;;;;;;;8.77;3.33;;;;;;;;;;4995409;28;20545;-65
2023/08/30 13:42:15;;;;;;;8.52;3.80;;;;;;;;;;4995111;28;20061;-65
2023/08/30 13:44:42;;;;;;;8.40;3.70;;;;;;;;;;4994954;28;20023;-66
2023/08/30 13:47:07;;;;;;;5.45;3.45;;;;;;;;;;4998415;28;20119;-65
2023/08/30 13:49:33;;;;;;;11.27;3.60;;;;;;;;;;5013964;28;20418;-65
2023/08/30 13:51:58;;;;;;;9.00;3.60;;;;;;;;;;5006617;28;20022;-65
2023/08/30 13:54:23;;;;;;;14.27;3.65;;;;;;;;;;5012820;28;20022;-65
2023/08/30 13:56:49;;;;;;;10.73;3.60;;;;;;;;;;5014537;28;20018;-65
2023/08/30 13:59:14;;;;;;;6.40;3.30;;;;;;;;;;5005842;28;20110;-65
2023/08/30 14:01:40;;;;;;;7.95;3.50;;;;;;;;;;5013948;28;20025;-65
2023/08/30 14:04:05;;;;;;;7.10;3.73;;;;;;;;;;4995950;28;20033;-65
2023/08/30 14:06:31;;;;;;;8.80;3.50;;;;;;;;;;5009605;28;20302;-65
2023/08/30 14:08:56;;;;;;;8.02;3.00;;;;;;;;;;4994519;28;20412;-65
2023/08/30 14:11:21;;;;;;;13.30;3.58;;;;;;;;;;4994523;28;20036;-65
2023/08/30 14:13:47;;;;;;;14.30;3.73;;;;;;;;;;5005765;28;20030;-65
2023/08/30 14:16:12;;;;;;;10.53;3.30;;;;;;;;;;5014013;28;20029;-65
2023/08/30 14:18:37;;;;;;;6.37;3.50;;;;;;;;;;4998251;28;20084;-65